Time;durP1;ratioP1;P1;durP2;ratioP2;P2;SDS_P1;SDS_P2;PMS_P1;PMS_P2;Temp;Humidity;BMP_temperature;BMP_pressure;BME280_temperature;BME280_humidity;BME280_pressure;Samples;Min_cycle;Max_cycle;Signal;HPM_P1;HPM_P2
2022/04/02 00:01:19;;;;;;;4.13;1.50;;;;;;;;;;5008326;28;20467;-60
2022/04/02 00:03:45;;;;;;;3.47;1.50;;;;;;;;;;5010717;28;20517;-61
2022/04/02 00:06:12;;;;;;;4.83;1.33;;;;;;;;;;5012429;28;20451;-60
2022/04/02 00:08:56;;;;;;;3.40;1.40;;;;;;;;;;5011813;28;20558;-60
2022/04/02 00:11:23;;;;;;;4.23;1.43;;;;;;;;;;5021364;28;20953;-61
2022/04/02 00:13:50;;;;;;;3.73;1.50;;;;;;;;;;5014239;28;20441;-60
2022/04/02 00:16:16;;;;;;;3.40;1.30;;;;;;;;;;5012333;28;20930;-60
2022/04/02 00:18:43;;;;;;;4.73;1.50;;;;;;;;;;5012507;28;20446;-60
2022/04/02 00:21:10;;;;;;;4.90;1.30;;;;;;;;;;5012645;28;20946;-60
2022/04/02 00:23:40;;;;;;;3.00;1.10;;;;;;;;;;5030416;28;21787;-60
2022/04/02 00:26:07;;;;;;;1.60;1.10;;;;;;;;;;5028641;28;20440;-60
2022/04/02 00:28:35;;;;;;;3.00;1.70;;;;;;;;;;5011906;28;20965;-60
2022/04/02 00:31:03;;;;;;;4.77;1.30;;;;;;;;;;5011763;28;20439;-60
2022/04/02 00:33:29;;;;;;;3.23;1.40;;;;;;;;;;5019141;28;20518;-60
2022/04/02 00:36:14;;;;;;;4.60;1.33;;;;;;;;;;5017479;28;20430;-60
2022/04/02 00:38:41;;;;;;;3.87;1.23;;;;;;;;;;5010861;28;20486;-60
2022/04/02 00:41:08;;;;;;;4.80;1.47;;;;;;;;;;5011637;28;20885;-60
2022/04/02 00:43:44;;;;;;;2.37;1.30;;;;;;;;;;5017664;28;20549;-61
2022/04/02 00:46:11;;;;;;;1.97;1.10;;;;;;;;;;5015507;28;20441;-60
2022/04/02 00:48:38;;;;;;;3.47;1.33;;;;;;;;;;5028389;28;20580;-60
2022/04/02 00:51:05;;;;;;;3.50;1.40;;;;;;;;;;5019412;28;20451;-60
2022/04/02 00:53:32;;;;;;;2.10;1.23;;;;;;;;;;5011207;28;20481;-60
2022/04/02 00:55:59;;;;;;;4.87;1.43;;;;;;;;;;5022850;28;20442;-60
2022/04/02 00:58:28;;;;;;;2.73;1.13;;;;;;;;;;5015383;28;20533;-60
2022/04/02 01:01:13;;;;;;;3.60;1.10;;;;;;;;;;5027041;28;21226;-60
2022/04/02 01:03:43;;;;;;;2.00;1.03;;;;;;;;;;5017496;28;20516;-60
2022/04/02 01:38:30;;;;;;;4.90;1.30;;;;;;;;;;5029908;28;20421;-60
2022/04/02 01:40:58;;;;;;;5.50;1.30;;;;;;;;;;5009418;28;20794;-60
2022/04/02 01:43:34;;;;;;;3.07;1.10;;;;;;;;;;5014146;28;20461;-60
2022/04/02 01:46:18;;;;;;;3.17;1.30;;;;;;;;;;5028146;28;20445;-60
2022/04/02 01:48:49;;;;;;;5.70;1.10;;;;;;;;;;5021508;28;20479;-61
2022/04/02 01:51:16;;;;;;;3.67;1.20;;;;;;;;;;5011576;28;20455;-60
2022/04/02 01:53:42;;;;;;;3.90;1.30;;;;;;;;;;5012747;28;20787;-60
2022/04/02 01:56:12;;;;;;;2.50;1.00;;;;;;;;;;5012347;28;20446;-61
2022/04/02 01:58:46;;;;;;;2.93;1.30;;;;;;;;;;5009119;28;20438;-60
2022/04/02 02:01:19;;;;;;;2.33;1.30;;;;;;;;;;5008913;28;20474;-60
2022/04/02 02:03:46;;;;;;;6.63;1.30;;;;;;;;;;5020338;28;20470;-60
2022/04/02 02:06:13;;;;;;;6.20;1.30;;;;;;;;;;5009761;28;20451;-60
2022/04/02 02:08:44;;;;;;;1.70;0.90;;;;;;;;;;5008330;28;20487;-60
2022/04/02 02:11:31;;;;;;;3.57;1.27;;;;;;;;;;5009951;28;21218;-60
2022/04/02 02:14:00;;;;;;;4.47;1.30;;;;;;;;;;5028386;28;20438;-60
2022/04/02 02:16:27;;;;;;;4.03;1.40;;;;;;;;;;5028030;28;20446;-62
2022/04/02 02:18:56;;;;;;;2.30;1.53;;;;;;;;;;5010847;28;20529;-60
2022/04/02 02:21:23;;;;;;;3.07;1.40;;;;;;;;;;5009057;28;20814;-60
2022/04/02 02:23:51;;;;;;;3.27;1.30;;;;;;;;;;5009947;28;20545;-60
2022/04/02 02:26:17;;;;;;;2.70;1.10;;;;;;;;;;5012951;28;20446;-60
2022/04/02 02:28:44;;;;;;;2.23;0.90;;;;;;;;;;5027456;28;20846;-60
2022/04/02 02:31:22;;;;;;;3.07;1.40;;;;;;;;;;5027709;28;20498;-60
2022/04/02 02:36:38;;;;;;;4.37;1.10;;;;;;;;;;5006228;28;20431;-60
2022/04/02 02:39:09;;;;;;;3.27;1.10;;;;;;;;;;5012297;28;20533;-60
2022/04/02 02:41:42;;;;;;;6.33;1.37;;;;;;;;;;5011534;28;21153;-60
2022/04/02 02:44:20;;;;;;;4.30;1.53;;;;;;;;;;5022663;28;21115;-60
2022/04/02 02:46:59;;;;;;;7.87;1.60;;;;;;;;;;5009539;28;20427;-60
2022/04/02 02:49:28;;;;;;;3.77;1.10;;;;;;;;;;5007820;28;21055;-60
2022/04/02 02:52:18;;;;;;;4.50;1.30;;;;;;;;;;5009026;28;20435;-60
2022/04/02 02:54:48;;;;;;;2.57;1.20;;;;;;;;;;5008956;28;20788;-60
2022/04/02 02:57:15;;;;;;;2.17;1.10;;;;;;;;;;5007708;28;20439;-60
2022/04/02 02:59:41;;;;;;;4.03;1.10;;;;;;;;;;5012943;28;20504;-60
2022/04/02 03:02:12;;;;;;;4.10;0.90;;;;;;;;;;5012857;28;20434;-60
2022/04/02 03:04:42;;;;;;;4.57;1.27;;;;;;;;;;5014594;28;20482;-60
2022/04/02 03:07:17;;;;;;;3.27;1.33;;;;;;;;;;5008515;28;20434;-60
2022/04/02 03:09:43;;;;;;;3.80;1.30;;;;;;;;;;5024681;28;20485;-60
2022/04/02 03:12:11;;;;;;;4.60;1.30;;;;;;;;;;5026276;28;20937;-60
2022/04/02 03:14:39;;;;;;;1.93;1.10;;;;;;;;;;5027065;28;20556;-60
2022/04/02 03:17:25;;;;;;;2.67;1.40;;;;;;;;;;5023766;28;20449;-60
2022/04/02 03:19:53;;;;;;;3.90;1.20;;;;;;;;;;4997541;28;20442;-60
2022/04/02 03:22:40;;;;;;;2.30;1.07;;;;;;;;;;5011587;28;20948;-60
2022/04/02 03:25:11;;;;;;;2.80;1.03;;;;;;;;;;5028293;28;20464;-61
2022/04/02 03:27:56;;;;;;;5.50;1.10;;;;;;;;;;5028185;28;20410;-60
2022/04/02 03:30:24;;;;;;;2.37;1.27;;;;;;;;;;5023542;28;20992;-60
2022/04/02 03:32:53;;;;;;;3.30;1.10;;;;;;;;;;5012866;28;20470;-60
2022/04/02 03:35:20;;;;;;;2.47;0.97;;;;;;;;;;5027648;28;21387;-60
2022/04/02 03:37:50;;;;;;;1.43;1.10;;;;;;;;;;5021531;28;20522;-60
2022/04/02 03:40:35;;;;;;;2.17;1.10;;;;;;;;;;5015400;28;20430;-60
2022/04/02 03:43:04;;;;;;;4.63;1.20;;;;;;;;;;5024046;28;20443;-60
2022/04/02 03:45:35;;;;;;;2.20;0.90;;;;;;;;;;5020418;28;20443;-60
2022/04/02 03:48:02;;;;;;;2.23;1.07;;;;;;;;;;5006807;28;20465;-60
2022/04/02 03:50:36;;;;;;;2.53;1.13;;;;;;;;;;5036033;28;20482;-60
2022/04/02 03:53:20;;;;;;;2.50;1.00;;;;;;;;;;5006994;28;20427;-60
2022/04/02 03:55:56;;;;;;;3.27;1.07;;;;;;;;;;5023951;28;20988;-60
2022/04/02 03:58:35;;;;;;;3.20;1.23;;;;;;;;;;5007108;28;20438;-60
2022/04/02 04:01:03;;;;;;;2.83;1.17;;;;;;;;;;5006570;28;20458;-60
2022/04/02 04:03:32;;;;;;;1.57;1.10;;;;;;;;;;5020537;28;20473;-60
2022/04/02 04:06:00;;;;;;;2.47;1.07;;;;;;;;;;5012769;28;21211;-60
2022/04/02 04:08:28;;;;;;;2.00;1.00;;;;;;;;;;5008604;28;20450;-59
2022/04/02 04:10:55;;;;;;;2.67;1.10;;;;;;;;;;5024695;28;20801;-59
2022/04/02 04:13:22;;;;;;;3.07;1.17;;;;;;;;;;5026178;28;20489;-59
2022/04/02 04:15:50;;;;;;;2.80;1.40;;;;;;;;;;5021128;28;20973;-59
2022/04/02 04:18:18;;;;;;;2.53;1.17;;;;;;;;;;5014124;28;20430;-59
2022/04/02 04:20:45;;;;;;;5.43;1.13;;;;;;;;;;5011390;28;20517;-59
2022/04/02 04:23:18;;;;;;;5.20;1.07;;;;;;;;;;5009295;28;20441;-59
2022/04/02 04:25:45;;;;;;;5.97;1.73;;;;;;;;;;5007104;28;20929;-59
2022/04/02 04:28:12;;;;;;;2.57;1.03;;;;;;;;;;5009673;28;20882;-59
2022/04/02 04:30:43;;;;;;;3.60;1.27;;;;;;;;;;5024373;28;20589;-59
2022/04/02 04:33:10;;;;;;;2.20;1.00;;;;;;;;;;5024484;28;20783;-59
2022/04/02 04:35:36;;;;;;;3.07;1.03;;;;;;;;;;5007500;28;20490;-59
2022/04/02 04:38:03;;;;;;;2.93;1.20;;;;;;;;;;5007523;28;20453;-59
2022/04/02 04:40:48;;;;;;;3.80;1.20;;;;;;;;;;5018293;28;20454;-59
2022/04/02 04:43:18;;;;;;;1.93;1.10;;;;;;;;;;5006631;28;20435;-59
2022/04/02 04:46:03;;;;;;;3.40;0.90;;;;;;;;;;5004764;28;20522;-59
2022/04/02 04:48:30;;;;;;;2.23;0.90;;;;;;;;;;5019474;28;20446;-60
2022/04/02 04:50:59;;;;;;;2.37;1.00;;;;;;;;;;5004227;28;20453;-59
2022/04/02 04:53:28;;;;;;;3.83;1.27;;;;;;;;;;5006285;28;20557;-57
2022/04/02 04:55:55;;;;;;;2.60;1.30;;;;;;;;;;5024251;28;20961;-60
2022/04/02 04:58:23;;;;;;;2.43;1.07;;;;;;;;;;5023141;28;20458;-61
2022/04/02 05:00:56;;;;;;;3.97;1.20;;;;;;;;;;5022702;28;20896;-61
2022/04/02 05:03:24;;;;;;;1.90;0.90;;;;;;;;;;5021643;28;20470;-61
2022/04/02 05:05:52;;;;;;;6.23;1.30;;;;;;;;;;5023918;28;21000;-61
2022/04/02 05:08:21;;;;;;;2.83;1.30;;;;;;;;;;5020488;28;20453;-60
2022/04/02 05:10:50;;;;;;;2.37;1.10;;;;;;;;;;5021064;28;20494;-60
2022/04/02 05:13:25;;;;;;;4.13;1.27;;;;;;;;;;5019105;28;20447;-60
2022/04/02 05:16:15;;;;;;;2.80;1.00;;;;;;;;;;5021231;28;20442;-61
2022/04/02 05:18:44;;;;;;;2.20;1.00;;;;;;;;;;5019209;28;20454;-60
2022/04/02 05:21:13;;;;;;;4.57;1.30;;;;;;;;;;5020984;28;20455;-60
2022/04/02 05:23:40;;;;;;;2.80;1.30;;;;;;;;;;5019567;28;21530;-60
2022/04/02 05:26:07;;;;;;;2.70;1.37;;;;;;;;;;5021190;28;20493;-60
2022/04/02 05:28:36;;;;;;;4.03;1.33;;;;;;;;;;5021504;28;20438;-62
2022/04/02 05:31:03;;;;;;;3.97;1.23;;;;;;;;;;5020252;28;21014;-61
2022/04/02 05:33:31;;;;;;;3.33;1.40;;;;;;;;;;5023630;28;20462;-60
2022/04/02 05:36:08;;;;;;;3.10;1.23;;;;;;;;;;5021812;28;20580;-59
2022/04/02 05:38:35;;;;;;;2.83;1.20;;;;;;;;;;5021668;28;20436;-60
2022/04/02 05:41:03;;;;;;;5.73;1.40;;;;;;;;;;5021820;28;20493;-60
2022/04/02 05:43:33;;;;;;;2.93;1.20;;;;;;;;;;5020630;28;20438;-60
2022/04/02 05:46:00;;;;;;;2.67;1.27;;;;;;;;;;5019912;28;20906;-60
2022/04/02 05:48:27;;;;;;;4.13;1.20;;;;;;;;;;5025187;28;20443;-60
2022/04/02 05:50:55;;;;;;;1.97;1.20;;;;;;;;;;5030728;28;20497;-59
2022/04/02 05:53:25;;;;;;;2.50;1.30;;;;;;;;;;5031486;28;20692;-59
2022/04/02 05:55:53;;;;;;;3.97;1.30;;;;;;;;;;5028986;28;20454;-60
2022/04/02 05:58:20;;;;;;;4.53;1.43;;;;;;;;;;5029954;28;20519;-59
2022/04/02 06:00:48;;;;;;;3.47;1.30;;;;;;;;;;5027333;28;20575;-59
2022/04/02 06:03:15;;;;;;;2.50;1.27;;;;;;;;;;5029845;28;20515;-60
2022/04/02 06:05:43;;;;;;;3.77;1.20;;;;;;;;;;5029587;28;20439;-59
2022/04/02 06:08:10;;;;;;;4.07;1.47;;;;;;;;;;5028049;28;20545;-58
2022/04/02 06:10:37;;;;;;;6.37;1.67;;;;;;;;;;5024730;28;20485;-58
2022/04/02 06:13:05;;;;;;;5.70;1.43;;;;;;;;;;5011923;28;20451;-57
2022/04/02 06:15:32;;;;;;;3.23;1.43;;;;;;;;;;5029097;28;20528;-58
2022/04/02 06:17:59;;;;;;;3.23;1.43;;;;;;;;;;5028594;28;20438;-57
2022/04/02 06:20:26;;;;;;;4.03;1.20;;;;;;;;;;5031354;28;20469;-57
2022/04/02 06:22:53;;;;;;;4.30;1.50;;;;;;;;;;5028952;28;20446;-59
2022/04/02 06:25:20;;;;;;;3.40;1.40;;;;;;;;;;5027523;28;20488;-57
2022/04/02 06:27:47;;;;;;;3.67;1.60;;;;;;;;;;5010330;28;20493;-61
2022/04/02 06:30:17;;;;;;;1.60;1.00;;;;;;;;;;5028231;28;20517;-58
2022/04/02 06:32:51;;;;;;;3.67;1.50;;;;;;;;;;5011125;28;20431;-57
2022/04/02 06:35:19;;;;;;;1.83;1.40;;;;;;;;;;5027970;28;20967;-58
2022/04/02 06:37:46;;;;;;;5.20;1.40;;;;;;;;;;5023981;28;21045;-59
2022/04/02 06:40:12;;;;;;;2.53;1.30;;;;;;;;;;5025193;28;20438;-58
2022/04/02 06:42:39;;;;;;;4.80;1.37;;;;;;;;;;5029405;28;21098;-58
2022/04/02 06:45:47;;;;;;;2.90;1.30;;;;;;;;;;5024739;28;20540;-59
2022/04/02 06:48:14;;;;;;;4.53;1.27;;;;;;;;;;5014186;28;20473;-59
2022/04/02 06:50:58;;;;;;;6.87;1.57;;;;;;;;;;5016344;28;21011;-59
2022/04/02 06:53:25;;;;;;;2.90;1.30;;;;;;;;;;5008282;28;21060;-58
2022/04/02 06:56:09;;;;;;;3.13;1.20;;;;;;;;;;5009404;28;20481;-58
2022/04/02 06:58:36;;;;;;;4.53;1.30;;;;;;;;;;5009296;28;20431;-58
2022/04/02 07:01:03;;;;;;;7.77;1.00;;;;;;;;;;5009250;28;20534;-58
2022/04/02 07:03:30;;;;;;;2.30;1.13;;;;;;;;;;5007678;28;20463;-59
2022/04/02 07:05:57;;;;;;;4.83;1.60;;;;;;;;;;5011157;28;20469;-59
2022/04/02 07:08:23;;;;;;;6.27;1.30;;;;;;;;;;5016230;28;20481;-59
2022/04/02 07:10:50;;;;;;;2.10;1.10;;;;;;;;;;5009167;28;20936;-59
2022/04/02 07:13:17;;;;;;;10.53;1.50;;;;;;;;;;5008643;28;20469;-59
2022/04/02 07:15:44;;;;;;;5.23;1.23;;;;;;;;;;5008700;28;20230;-60
2022/04/02 07:18:11;;;;;;;3.27;0.93;;;;;;;;;;5008712;28;20439;-59
2022/04/02 07:20:39;;;;;;;8.37;1.70;;;;;;;;;;4991735;28;20447;-59
2022/04/02 07:23:23;;;;;;;6.23;1.30;;;;;;;;;;5018343;28;20425;-59
2022/04/02 07:25:52;;;;;;;3.37;1.00;;;;;;;;;;5020169;28;20449;-58
2022/04/02 07:28:19;;;;;;;3.80;1.20;;;;;;;;;;5009551;28;20437;-59
2022/04/02 07:30:46;;;;;;;3.07;1.27;;;;;;;;;;5008518;28;20490;-60
2022/04/02 07:33:21;;;;;;;5.10;1.20;;;;;;;;;;5025202;28;20458;-59
2022/04/02 07:35:55;;;;;;;7.60;1.57;;;;;;;;;;5021195;28;20967;-59
2022/04/02 07:38:22;;;;;;;6.47;1.00;;;;;;;;;;5027876;28;20445;-59
2022/04/02 07:41:25;;;;;;;2.07;1.00;;;;;;;;;;5015229;28;20447;-60
2022/04/02 07:44:03;;;;;;;6.00;1.30;;;;;;;;;;5013152;28;20937;-58
2022/04/02 07:46:30;;;;;;;3.80;1.10;;;;;;;;;;5008440;28;20464;-59
2022/04/02 07:49:00;;;;;;;4.47;1.10;;;;;;;;;;4990821;28;20442;-59
2022/04/02 07:51:30;;;;;;;4.33;0.90;;;;;;;;;;4991631;28;20989;-59
2022/04/02 07:54:01;;;;;;;5.27;1.00;;;;;;;;;;5006868;28;20454;-60
2022/04/02 07:56:28;;;;;;;4.63;1.30;;;;;;;;;;5008374;28;20929;-60
2022/04/02 07:58:58;;;;;;;7.03;1.47;;;;;;;;;;5008151;28;20446;-60
2022/04/02 08:01:25;;;;;;;2.63;0.93;;;;;;;;;;5014301;28;20606;-60
2022/04/02 08:03:54;;;;;;;3.40;1.20;;;;;;;;;;5004189;28;20468;-59
2022/04/02 08:06:21;;;;;;;2.83;1.30;;;;;;;;;;5021805;28;20441;-60
2022/04/02 08:08:49;;;;;;;4.50;1.40;;;;;;;;;;5010979;28;20430;-60
2022/04/02 08:11:16;;;;;;;3.10;1.00;;;;;;;;;;5017536;28;20510;-60
2022/04/02 08:13:44;;;;;;;2.37;1.03;;;;;;;;;;5017240;28;21027;-60
2022/04/02 08:16:30;;;;;;;4.60;1.27;;;;;;;;;;5019297;28;20433;-60
2022/04/02 08:18:57;;;;;;;7.43;4.87;;;;;;;;;;5026630;28;20430;-60
2022/04/02 08:21:41;;;;;;;1.77;1.07;;;;;;;;;;5026148;28;21294;-60
2022/04/02 08:24:08;;;;;;;4.47;1.93;;;;;;;;;;5009942;28;20489;-60
2022/04/02 08:26:49;;;;;;;3.83;1.40;;;;;;;;;;5021322;28;20441;-60
2022/04/02 08:29:35;;;;;;;4.17;1.30;;;;;;;;;;5012737;28;20439;-60
2022/04/02 08:32:31;;;;;;;3.23;1.37;;;;;;;;;;5013077;28;20442;-60
2022/04/02 08:35:08;;;;;;;3.47;1.20;;;;;;;;;;5023257;28;21044;-60
2022/04/02 08:37:57;;;;;;;4.90;1.30;;;;;;;;;;5051401;28;20441;-60
2022/04/02 08:40:37;;;;;;;3.23;1.23;;;;;;;;;;5036296;28;20470;-60
2022/04/02 08:43:21;;;;;;;2.43;1.10;;;;;;;;;;5021787;28;20443;-60
2022/04/02 08:45:48;;;;;;;4.80;1.40;;;;;;;;;;5028901;28;20520;-60
2022/04/02 08:48:25;;;;;;;3.67;1.00;;;;;;;;;;5050632;28;20433;-61
2022/04/02 08:51:11;;;;;;;3.73;1.10;;;;;;;;;;5011529;28;20474;-61
2022/04/02 08:53:41;;;;;;;12.50;1.63;;;;;;;;;;5011500;28;20526;-59
2022/04/02 08:56:08;;;;;;;4.10;1.30;;;;;;;;;;5012978;28;20442;-60
2022/04/02 08:58:59;;;;;;;6.90;1.40;;;;;;;;;;5023052;28;20187;-60
2022/04/02 09:01:45;;;;;;;6.13;1.90;;;;;;;;;;5035287;28;20241;-59
2022/04/02 09:04:22;;;;;;;2.87;1.00;;;;;;;;;;5042334;28;20238;-62
2022/04/02 09:07:11;;;;;;;3.43;1.50;;;;;;;;;;5041617;28;20245;-60
2022/04/02 09:09:51;;;;;;;3.33;1.00;;;;;;;;;;5043840;28;20444;-59
2022/04/02 09:12:24;;;;;;;4.07;1.20;;;;;;;;;;5043135;28;20944;-59
2022/04/02 09:14:54;;;;;;;6.40;2.40;;;;;;;;;;5043115;28;20507;-59
2022/04/02 09:17:27;;;;;;;5.30;1.10;;;;;;;;;;5040192;28;20457;-59
2022/04/02 09:19:57;;;;;;;2.57;1.20;;;;;;;;;;5044416;28;20187;-61
2022/04/02 09:22:35;;;;;;;9.27;1.40;;;;;;;;;;5041008;28;20213;-59
2022/04/02 09:25:04;;;;;;;2.40;1.10;;;;;;;;;;5042883;28;20248;-59
2022/04/02 09:28:03;;;;;;;4.30;1.10;;;;;;;;;;5041518;28;20194;-60
2022/04/02 09:30:34;;;;;;;9.50;1.53;;;;;;;;;;5041925;28;20214;-60
2022/04/02 09:33:24;;;;;;;4.07;1.33;;;;;;;;;;5042370;28;20456;-61
2022/04/02 09:35:57;;;;;;;2.27;1.17;;;;;;;;;;5036375;28;20238;-60
2022/04/02 09:38:26;;;;;;;10.23;1.70;;;;;;;;;;5041070;28;20511;-60
2022/04/02 09:40:57;;;;;;;2.77;2.53;;;;;;;;;;5043665;28;20445;-59
2022/04/02 09:43:27;;;;;;;8.27;1.27;;;;;;;;;;5042367;28;20445;-60
2022/04/02 09:46:12;;;;;;;2.73;1.30;;;;;;;;;;5042503;28;20906;-60
2022/04/02 09:48:51;;;;;;;4.47;2.50;;;;;;;;;;5042087;28;20456;-60
2022/04/02 09:51:37;;;;;;;4.33;1.27;;;;;;;;;;5041443;28;20477;-60
2022/04/02 09:54:04;;;;;;;6.17;1.50;;;;;;;;;;5042255;28;20499;-60
2022/04/02 09:56:51;;;;;;;3.90;1.30;;;;;;;;;;5040684;28;20539;-60
2022/04/02 09:59:23;;;;;;;5.10;1.37;;;;;;;;;;5042170;28;20195;-59
2022/04/02 10:02:04;;;;;;;4.80;1.63;;;;;;;;;;5026966;28;20280;-60
2022/04/02 10:04:37;;;;;;;4.03;1.73;;;;;;;;;;5022145;28;20289;-62
2022/04/02 10:07:04;;;;;;;2.17;1.23;;;;;;;;;;5021969;28;20536;-59
2022/04/02 10:09:32;;;;;;;1.70;1.20;;;;;;;;;;5019285;28;20207;-61
2022/04/02 10:12:00;;;;;;;2.83;2.47;;;;;;;;;;5021334;28;20369;-61
2022/04/02 10:14:28;;;;;;;5.23;1.50;;;;;;;;;;5022201;28;20207;-60
2022/04/02 10:16:56;;;;;;;4.20;1.43;;;;;;;;;;5022754;28;20215;-60
2022/04/02 10:19:36;;;;;;;9.23;2.23;;;;;;;;;;5020190;28;20702;-60
2022/04/02 10:22:22;;;;;;;5.30;1.53;;;;;;;;;;5020324;28;20655;-60
2022/04/02 10:24:49;;;;;;;2.47;1.30;;;;;;;;;;5021105;28;20191;-59
2022/04/02 10:27:35;;;;;;;4.07;1.40;;;;;;;;;;5020445;28;20664;-59
2022/04/02 10:30:05;;;;;;;4.47;1.23;;;;;;;;;;5021945;28;21348;-60
2022/04/02 10:32:52;;;;;;;3.83;1.60;;;;;;;;;;5021110;28;20214;-59
2022/04/02 10:35:20;;;;;;;3.17;1.47;;;;;;;;;;5020073;28;20625;-60
2022/04/02 10:38:09;;;;;;;2.80;1.50;;;;;;;;;;5021835;28;20187;-59
2022/04/02 10:40:40;;;;;;;11.27;1.73;;;;;;;;;;5022034;28;20539;-60
2022/04/02 10:43:07;;;;;;;4.07;1.60;;;;;;;;;;5021756;28;20202;-60
2022/04/02 10:45:35;;;;;;;3.10;1.20;;;;;;;;;;5021033;28;20223;-61
2022/04/02 10:48:09;;;;;;;7.00;1.60;;;;;;;;;;5021074;28;20203;-60
2022/04/02 10:50:55;;;;;;;4.17;1.70;;;;;;;;;;5021622;28;20215;-60
2022/04/02 10:53:22;;;;;;;7.23;1.90;;;;;;;;;;5020788;28;20192;-59
2022/04/02 10:55:52;;;;;;;4.40;1.30;;;;;;;;;;5021596;28;20210;-60
2022/04/02 10:58:20;;;;;;;5.57;2.37;;;;;;;;;;5020873;28;21025;-60
2022/04/02 11:00:48;;;;;;;12.57;2.13;;;;;;;;;;5022844;28;20253;-60
2022/04/02 11:03:29;;;;;;;8.10;1.70;;;;;;;;;;5011426;28;20756;-60
2022/04/02 11:05:57;;;;;;;2.90;1.60;;;;;;;;;;5021795;28;20195;-61
2022/04/02 11:08:24;;;;;;;3.17;1.80;;;;;;;;;;5019949;28;20192;-60
2022/04/02 11:10:51;;;;;;;5.00;2.00;;;;;;;;;;5019716;28;20254;-61
2022/04/02 11:13:26;;;;;;;7.37;1.77;;;;;;;;;;5020291;28;20688;-59
2022/04/02 11:15:54;;;;;;;10.53;2.20;;;;;;;;;;5022208;28;20198;-59
2022/04/02 11:18:21;;;;;;;10.83;1.63;;;;;;;;;;5019640;28;20253;-59
2022/04/02 11:20:48;;;;;;;7.13;1.73;;;;;;;;;;5008379;28;20192;-59
2022/04/02 11:23:19;;;;;;;3.83;1.20;;;;;;;;;;5026592;28;20654;-59
2022/04/02 11:25:48;;;;;;;3.73;1.20;;;;;;;;;;5025473;28;20442;-59
2022/04/02 11:28:23;;;;;;;4.07;1.40;;;;;;;;;;5024561;28;20434;-59
2022/04/02 11:30:51;;;;;;;8.80;1.30;;;;;;;;;;5026880;28;20245;-59
2022/04/02 11:33:19;;;;;;;22.60;2.80;;;;;;;;;;5025417;28;20769;-59
2022/04/02 11:35:47;;;;;;;6.17;1.67;;;;;;;;;;5025930;28;20274;-59
2022/04/02 11:38:21;;;;;;;2.77;1.20;;;;;;;;;;5026750;28;20762;-59
2022/04/02 11:40:52;;;;;;;6.00;1.23;;;;;;;;;;5009321;28;20427;-59
2022/04/02 11:43:45;;;;;;;11.97;2.10;;;;;;;;;;5022767;28;20187;-60
2022/04/02 11:46:13;;;;;;;4.77;2.00;;;;;;;;;;5024543;28;20932;-60
2022/04/02 11:48:52;;;;;;;9.03;2.40;;;;;;;;;;5025042;28;20294;-59
2022/04/02 11:51:20;;;;;;;2.53;1.30;;;;;;;;;;5026331;28;20302;-60
2022/04/02 11:54:07;;;;;;;8.33;1.80;;;;;;;;;;5025873;28;20434;-60
2022/04/02 11:56:43;;;;;;;3.27;2.43;;;;;;;;;;5025533;28;20286;-60
2022/04/02 11:59:13;;;;;;;6.97;4.00;;;;;;;;;;5027700;28;20204;-58
2022/04/02 12:01:41;;;;;;;15.57;10.07;;;;;;;;;;5019738;28;21578;-59
2022/04/02 12:04:14;;;;;;;13.37;3.53;;;;;;;;;;5028200;28;20313;-59
2022/04/02 12:06:45;;;;;;;8.40;2.60;;;;;;;;;;5014067;28;20564;-59
2022/04/02 12:09:13;;;;;;;3.77;1.90;;;;;;;;;;5026145;28;20452;-59
2022/04/02 12:11:50;;;;;;;11.30;2.77;;;;;;;;;;5029133;28;20497;-60
2022/04/02 12:14:27;;;;;;;3.07;1.70;;;;;;;;;;5023171;28;20447;-60
2022/04/02 12:16:58;;;;;;;5.73;2.07;;;;;;;;;;5022601;28;20202;-59
2022/04/02 12:19:39;;;;;;;6.73;1.73;;;;;;;;;;5027084;28;20207;-59
2022/04/02 12:22:25;;;;;;;6.93;2.30;;;;;;;;;;5025235;28;20469;-58
2022/04/02 12:25:03;;;;;;;6.77;2.63;;;;;;;;;;5025916;28;20553;-59
2022/04/02 12:27:33;;;;;;;4.13;2.83;;;;;;;;;;5027982;28;20443;-59
2022/04/02 12:30:07;;;;;;;5.47;2.40;;;;;;;;;;5028716;28;20434;-59
2022/04/02 12:32:38;;;;;;;5.27;2.17;;;;;;;;;;5025057;28;20505;-58
2022/04/02 12:35:11;;;;;;;5.63;2.23;;;;;;;;;;5028773;28;20754;-58
2022/04/02 12:37:45;;;;;;;4.17;2.10;;;;;;;;;;5028001;28;20434;-58
2022/04/02 12:40:30;;;;;;;10.47;2.43;;;;;;;;;;5026164;28;20442;-58
2022/04/02 12:43:01;;;;;;;4.03;1.83;;;;;;;;;;5028294;28;20195;-59
2022/04/02 12:45:29;;;;;;;4.00;1.63;;;;;;;;;;5028577;28;20942;-59
2022/04/02 12:47:56;;;;;;;6.53;2.90;;;;;;;;;;5026959;28;20238;-60
2022/04/02 12:50:23;;;;;;;11.30;2.63;;;;;;;;;;5022898;28;20253;-60
2022/04/02 12:53:09;;;;;;;7.03;2.70;;;;;;;;;;5024588;28;20187;-59
2022/04/02 12:55:36;;;;;;;7.77;2.37;;;;;;;;;;5023527;28;20217;-60
2022/04/02 12:58:41;;;;;;;6.33;2.47;;;;;;;;;;5024874;28;20878;-59
2022/04/02 13:01:27;;;;;;;5.03;2.07;;;;;;;;;;5030970;28;20438;-60
2022/04/02 13:04:12;;;;;;;9.73;2.10;;;;;;;;;;5029563;28;20462;-59
2022/04/02 13:06:39;;;;;;;5.10;1.47;;;;;;;;;;5030895;28;20195;-59
2022/04/02 13:09:30;;;;;;;2.33;1.20;;;;;;;;;;5029996;28;20168;-59
2022/04/02 13:11:57;;;;;;;4.57;1.47;;;;;;;;;;5010690;28;20490;-59
2022/04/02 13:14:50;;;;;;;5.23;1.50;;;;;;;;;;5010695;28;20423;-60
2022/04/02 13:17:18;;;;;;;2.60;1.37;;;;;;;;;;5010754;28;20454;-59
2022/04/02 13:22:36;;;;;;;6.53;1.70;;;;;;;;;;5010788;28;20442;-59
2022/04/02 13:25:29;;;;;;;5.80;1.40;;;;;;;;;;4995865;28;20419;-60
2022/04/02 13:28:12;;;;;;;12.63;2.50;;;;;;;;;;5024015;28;20477;-59
2022/04/02 13:30:41;;;;;;;8.33;1.93;;;;;;;;;;5031017;28;21068;-59
2022/04/02 13:33:17;;;;;;;12.73;1.67;;;;;;;;;;5030414;28;20422;-59
2022/04/02 13:35:47;;;;;;;3.30;1.30;;;;;;;;;;5030494;28;20887;-59
2022/04/02 13:38:19;;;;;;;1.80;1.40;;;;;;;;;;5030839;28;20434;-60
2022/04/02 13:40:47;;;;;;;9.83;1.83;;;;;;;;;;5012316;28;20474;-60
2022/04/02 13:43:20;;;;;;;3.07;1.50;;;;;;;;;;5023596;28;20429;-60
2022/04/02 13:46:05;;;;;;;4.50;2.67;;;;;;;;;;5015149;28;21389;-59
2022/04/02 13:48:36;;;;;;;12.53;4.70;;;;;;;;;;5021182;28;20438;-58
2022/04/02 13:51:10;;;;;;;4.77;2.13;;;;;;;;;;5022265;28;20474;-59
2022/04/02 13:53:37;;;;;;;18.93;8.93;;;;;;;;;;5018634;28;20445;-58
2022/04/02 13:56:07;;;;;;;6.40;2.87;;;;;;;;;;5021145;28;20492;-60
2022/04/02 13:58:42;;;;;;;10.93;2.17;;;;;;;;;;5022820;28;20449;-60
2022/04/02 14:01:19;;;;;;;6.43;4.13;;;;;;;;;;5021853;28;20452;-59
2022/04/02 14:03:53;;;;;;;12.43;4.93;;;;;;;;;;5021698;28;20465;-59
2022/04/02 14:06:22;;;;;;;7.20;2.23;;;;;;;;;;5022876;28;20448;-58
2022/04/02 14:08:49;;;;;;;4.80;1.90;;;;;;;;;;5021993;28;20440;-59
2022/04/02 14:11:20;;;;;;;4.27;2.30;;;;;;;;;;5022829;28;20936;-60
2022/04/02 14:13:59;;;;;;;20.40;11.83;;;;;;;;;;5022569;28;21141;-59
2022/04/02 14:16:29;;;;;;;2.67;1.50;;;;;;;;;;5021856;28;20443;-59
2022/04/02 14:18:58;;;;;;;4.57;2.00;;;;;;;;;;5022383;28;20503;-62
2022/04/02 14:21:25;;;;;;;11.30;2.73;;;;;;;;;;5020798;28;20572;-60
2022/04/02 14:23:55;;;;;;;3.93;1.57;;;;;;;;;;5021260;28;20461;-59
2022/04/02 14:26:31;;;;;;;9.10;5.80;;;;;;;;;;5022297;28;21157;-59
2022/04/02 14:29:06;;;;;;;5.90;3.70;;;;;;;;;;5018767;28;20848;-54
2022/04/02 14:31:48;;;;;;;3.90;2.13;;;;;;;;;;5019568;28;21016;-59
2022/04/02 14:34:34;;;;;;;6.23;4.03;;;;;;;;;;5015653;28;20460;-59
2022/04/02 14:37:19;;;;;;;7.10;2.57;;;;;;;;;;5021938;28;20486;-59
2022/04/02 14:39:46;;;;;;;5.20;4.57;;;;;;;;;;5022056;28;20463;-58
2022/04/02 14:42:13;;;;;;;7.80;4.07;;;;;;;;;;5020984;28;20437;-59
2022/04/02 14:44:50;;;;;;;6.20;3.60;;;;;;;;;;5020914;28;21049;-60
2022/04/02 14:47:35;;;;;;;4.87;3.00;;;;;;;;;;5021511;28;20452;-59
2022/04/02 14:50:21;;;;;;;5.07;3.57;;;;;;;;;;5021030;28;20477;-59
2022/04/02 14:53:07;;;;;;;5.30;3.03;;;;;;;;;;5020904;28;20492;-59
2022/04/02 14:55:42;;;;;;;2.47;1.60;;;;;;;;;;5018749;28;20430;-60
2022/04/02 14:58:29;;;;;;;7.27;1.77;;;;;;;;;;5015518;28;20469;-59
2022/04/02 15:01:14;;;;;;;6.27;3.03;;;;;;;;;;5020730;28;20945;-58
2022/04/02 15:03:44;;;;;;;2.90;1.10;;;;;;;;;;5018945;28;20503;-60
2022/04/02 15:06:12;;;;;;;3.53;1.30;;;;;;;;;;5020490;28;20447;-62
2022/04/02 15:08:39;;;;;;;2.83;1.60;;;;;;;;;;5018184;28;20452;-60
2022/04/02 15:11:12;;;;;;;2.60;1.87;;;;;;;;;;5021287;28;20462;-60
2022/04/02 15:13:50;;;;;;;2.97;1.30;;;;;;;;;;5017661;28;20571;-60
2022/04/02 15:16:35;;;;;;;3.27;1.50;;;;;;;;;;5017787;28;20423;-60
2022/04/02 15:19:15;;;;;;;2.93;0.90;;;;;;;;;;5017358;28;20446;-60
2022/04/02 15:21:46;;;;;;;2.53;1.70;;;;;;;;;;5016970;28;20443;-60
2022/04/02 15:24:14;;;;;;;2.30;1.30;;;;;;;;;;5018038;28;21288;-64
2022/04/02 15:26:43;;;;;;;4.67;1.97;;;;;;;;;;5019052;28;21399;-60
2022/04/02 15:29:34;;;;;;;2.03;1.60;;;;;;;;;;5018524;28;20961;-59
2022/04/02 15:32:09;;;;;;;5.30;1.73;;;;;;;;;;5019188;28;20509;-61
2022/04/02 15:34:54;;;;;;;6.67;2.47;;;;;;;;;;5021444;28;20438;-60
2022/04/02 15:37:25;;;;;;;2.50;1.00;;;;;;;;;;5019510;28;20444;-60
2022/04/02 15:40:18;;;;;;;2.23;1.40;;;;;;;;;;5021030;28;20430;-60
2022/04/02 15:42:52;;;;;;;3.00;1.07;;;;;;;;;;5020016;28;20791;-61
2022/04/02 15:45:22;;;;;;;2.90;1.77;;;;;;;;;;5018583;28;21942;-60
2022/04/02 15:47:50;;;;;;;3.27;1.27;;;;;;;;;;5021176;28;20446;-59
2022/04/02 15:50:18;;;;;;;3.07;1.13;;;;;;;;;;5020597;28;20525;-60
2022/04/02 15:52:46;;;;;;;4.37;1.10;;;;;;;;;;5016275;28;21502;-59
2022/04/02 15:55:18;;;;;;;2.07;1.27;;;;;;;;;;5016948;28;20485;-59